Decatur, Georgia
Current Conditions -  °F | °C
As of 10:53 PM on Saturday 20 Dec 2014 (Local Time) from KPDK Reporting Station
Haze Haze  
Wind Chill: 46°   Ceiling: 1500
Heat Index: 46°   Visibility: 5mi
Dew Point: 43°   Wind: 0mph
Humidity: 89%   Direction: NA
Pressure: 30.2"   Gusts: NA
Location:  33.77°N, 84.3°W
Report Text: KPDK 210353Z AUTO 00000KT 5SM BR OVC015 08/06 A3020 RMK AO2 SLP234 T00780061
Loading
Personal Weather Stations






























Interactive Weather Map New forecast layout! Learn more

10-Day Weather Forecast

Advertisements
Track Severe Weather on mobile